sensor_id;sensor_type;location;lat;lon;timestamp;temperature;humidity
15554;DHT22;7878;44.632;10.942;2023-05-15T00:01:15;16.30;99.90
15554;DHT22;7878;44.632;10.942;2023-05-15T00:03:41;16.30;99.90
15554;DHT22;7878;44.632;10.942;2023-05-15T00:06:07;16.30;99.90
15554;DHT22;7878;44.632;10.942;2023-05-15T00:08:33;16.30;99.90
15554;DHT22;7878;44.632;10.942;2023-05-15T00:10:59;16.30;99.90
15554;DHT22;7878;44.632;10.942;2023-05-15T00:13:25;16.30;99.90
15554;DHT22;7878;44.632;10.942;2023-05-15T00:15:51;16.30;99.90
15554;DHT22;7878;44.632;10.942;2023-05-15T00:18:16;16.30;99.90
15554;DHT22;7878;44.632;10.942;2023-05-15T00:20:42;16.30;99.90
15554;DHT22;7878;44.632;10.942;2023-05-15T00:23:08;16.20;99.90
15554;DHT22;7878;44.632;10.942;2023-05-15T00:25:34;16.20;99.90
15554;DHT22;7878;44.632;10.942;2023-05-15T00:27:59;16.20;99.90
15554;DHT22;7878;44.632;10.942;2023-05-15T00:30:25;16.20;99.90
15554;DHT22;7878;44.632;10.942;2023-05-15T00:32:51;16.20;99.90
15554;DHT22;7878;44.632;10.942;2023-05-15T00:35:16;16.20;99.90
15554;DHT22;7878;44.632;10.942;2023-05-15T00:37:42;16.20;99.90
15554;DHT22;7878;44.632;10.942;2023-05-15T00:40:09;16.10;99.90
15554;DHT22;7878;44.632;10.942;2023-05-15T00:42:37;16.10;99.90
15554;DHT22;7878;44.632;10.942;2023-05-15T00:45:05;16.10;99.90
15554;DHT22;7878;44.632;10.942;2023-05-15T00:47:33;16.10;99.90
15554;DHT22;7878;44.632;10.942;2023-05-15T00:50:00;16.10;99.90
15554;DHT22;7878;44.632;10.942;2023-05-15T00:52:26;16.10;99.90
15554;DHT22;7878;44.632;10.942;2023-05-15T00:54:52;16.10;99.90
15554;DHT22;7878;44.632;10.942;2023-05-15T00:57:19;16.10;99.90
15554;DHT22;7878;44.632;10.942;2023-05-15T00:59:46;16.10;99.90
15554;DHT22;7878;44.632;10.942;2023-05-15T01:02:14;16.10;99.90
15554;DHT22;7878;44.632;10.942;2023-05-15T01:04:41;16.10;99.90
15554;DHT22;7878;44.632;10.942;2023-05-15T01:07:07;16.10;99.90
15554;DHT22;7878;44.632;10.942;2023-05-15T01:09:33;16.00;99.90
15554;DHT22;7878;44.632;10.942;2023-05-15T01:12:01;16.00;99.90
15554;DHT22;7878;44.632;10.942;2023-05-15T01:14:29;16.00;99.90
15554;DHT22;7878;44.632;10.942;2023-05-15T01:16:54;16.00;99.90
15554;DHT22;7878;44.632;10.942;2023-05-15T01:19:20;15.90;99.90
15554;DHT22;7878;44.632;10.942;2023-05-15T01:30:28;15.90;99.90
15554;DHT22;7878;44.632;10.942;2023-05-15T01:33:27;15.90;99.90
15554;DHT22;7878;44.632;10.942;2023-05-15T01:36:11;15.90;99.90
15554;DHT22;7878;44.632;10.942;2023-05-15T01:39:00;16.00;99.90
15554;DHT22;7878;44.632;10.942;2023-05-15T01:44:10;15.90;99.90
15554;DHT22;7878;44.632;10.942;2023-05-15T01:46:40;15.90;99.90
15554;DHT22;7878;44.632;10.942;2023-05-15T01:49:08;15.90;99.90
15554;DHT22;7878;44.632;10.942;2023-05-15T01:51:37;15.90;99.90
15554;DHT22;7878;44.632;10.942;2023-05-15T01:54:06;15.90;99.90
15554;DHT22;7878;44.632;10.942;2023-05-15T01:56:34;15.90;99.90
15554;DHT22;7878;44.632;10.942;2023-05-15T01:59:02;15.90;99.90
15554;DHT22;7878;44.632;10.942;2023-05-15T02:01:31;15.90;99.90
15554;DHT22;7878;44.632;10.942;2023-05-15T02:03:58;15.80;99.90
15554;DHT22;7878;44.632;10.942;2023-05-15T02:06:24;15.90;99.90
15554;DHT22;7878;44.632;10.942;2023-05-15T02:08:50;15.90;99.90
15554;DHT22;7878;44.632;10.942;2023-05-15T02:11:17;15.80;99.90
15554;DHT22;7878;44.632;10.942;2023-05-15T02:13:43;15.90;99.90
15554;DHT22;7878;44.632;10.942;2023-05-15T02:16:09;15.80;99.90
15554;DHT22;7878;44.632;10.942;2023-05-15T02:18:35;15.80;99.90
15554;DHT22;7878;44.632;10.942;2023-05-15T02:21:02;15.80;99.90
15554;DHT22;7878;44.632;10.942;2023-05-15T02:23:28;15.80;99.90
15554;DHT22;7878;44.632;10.942;2023-05-15T02:26:03;15.80;99.90
15554;DHT22;7878;44.632;10.942;2023-05-15T02:32:09;15.80;99.90
15554;DHT22;7878;44.632;10.942;2023-05-15T02:37:23;15.70;99.90
15554;DHT22;7878;44.632;10.942;2023-05-15T02:39:52;15.70;99.90
15554;DHT22;7878;44.632;10.942;2023-05-15T02:42:20;15.70;99.90
15554;DHT22;7878;44.632;10.942;2023-05-15T02:44:47;15.70;99.90
15554;DHT22;7878;44.632;10.942;2023-05-15T02:47:13;15.70;99.90
15554;DHT22;7878;44.632;10.942;2023-05-15T02:49:40;15.80;99.90
15554;DHT22;7878;44.632;10.942;2023-05-15T02:52:06;15.80;99.90
15554;DHT22;7878;44.632;10.942;2023-05-15T02:54:31;15.70;99.90
15554;DHT22;7878;44.632;10.942;2023-05-15T02:56:57;15.70;99.90
15554;DHT22;7878;44.632;10.942;2023-05-15T02:59:23;15.70;99.90
15554;DHT22;7878;44.632;10.942;2023-05-15T03:01:49;15.70;99.90
15554;DHT22;7878;44.632;10.942;2023-05-15T03:04:15;15.70;99.90
15554;DHT22;7878;44.632;10.942;2023-05-15T03:06:40;15.70;99.90
15554;DHT22;7878;44.632;10.942;2023-05-15T03:09:06;15.80;99.90
15554;DHT22;7878;44.632;10.942;2023-05-15T03:11:32;15.80;99.90
15554;DHT22;7878;44.632;10.942;2023-05-15T03:13:58;15.80;99.90
15554;DHT22;7878;44.632;10.942;2023-05-15T03:16:27;15.80;99.90
15554;DHT22;7878;44.632;10.942;2023-05-15T03:18:53;15.80;99.90
15554;DHT22;7878;44.632;10.942;2023-05-15T03:21:19;15.80;99.90
15554;DHT22;7878;44.632;10.942;2023-05-15T03:23:44;15.80;99.90
15554;DHT22;7878;44.632;10.942;2023-05-15T03:26:10;15.70;99.90
15554;DHT22;7878;44.632;10.942;2023-05-15T03:28:36;15.80;99.90
15554;DHT22;7878;44.632;10.942;2023-05-15T03:31:02;15.70;99.90
15554;DHT22;7878;44.632;10.942;2023-05-15T03:33:29;15.70;99.90
15554;DHT22;7878;44.632;10.942;2023-05-15T03:35:56;15.70;99.90
15554;DHT22;7878;44.632;10.942;2023-05-15T03:38:21;15.70;99.90
15554;DHT22;7878;44.632;10.942;2023-05-15T03:40:47;15.70;99.90
15554;DHT22;7878;44.632;10.942;2023-05-15T03:43:12;15.70;99.90
15554;DHT22;7878;44.632;10.942;2023-05-15T03:45:38;15.70;99.90
15554;DHT22;7878;44.632;10.942;2023-05-15T03:48:04;15.70;99.90
15554;DHT22;7878;44.632;10.942;2023-05-15T03:50:30;15.80;99.90
15554;DHT22;7878;44.632;10.942;2023-05-15T03:52:56;15.80;99.90
15554;DHT22;7878;44.632;10.942;2023-05-15T03:55:22;15.80;99.90
15554;DHT22;7878;44.632;10.942;2023-05-15T03:57:47;15.80;99.90
15554;DHT22;7878;44.632;10.942;2023-05-15T04:00:13;15.80;99.90
15554;DHT22;7878;44.632;10.942;2023-05-15T04:02:39;15.80;99.90
15554;DHT22;7878;44.632;10.942;2023-05-15T04:05:06;15.70;99.90
15554;DHT22;7878;44.632;10.942;2023-05-15T04:07:32;15.70;99.90
15554;DHT22;7878;44.632;10.942;2023-05-15T04:09:59;15.70;99.90
15554;DHT22;7878;44.632;10.942;2023-05-15T04:12:35;15.70;99.90
15554;DHT22;7878;44.632;10.942;2023-05-15T04:15:20;15.70;99.90
15554;DHT22;7878;44.632;10.942;2023-05-15T04:17:47;15.70;99.90
15554;DHT22;7878;44.632;10.942;2023-05-15T04:20:14;15.60;99.90
15554;DHT22;7878;44.632;10.942;2023-05-15T04:22:41;15.60;99.90
15554;DHT22;7878;44.632;10.942;2023-05-15T04:25:07;15.70;99.90
15554;DHT22;7878;44.632;10.942;2023-05-15T04:27:34;15.70;99.90
15554;DHT22;7878;44.632;10.942;2023-05-15T04:30:00;15.70;99.90
15554;DHT22;7878;44.632;10.942;2023-05-15T04:32:28;15.70;99.90
15554;DHT22;7878;44.632;10.942;2023-05-15T04:34:54;15.70;99.90
15554;DHT22;7878;44.632;10.942;2023-05-15T04:37:20;15.70;99.90
15554;DHT22;7878;44.632;10.942;2023-05-15T04:39:46;15.70;99.90
15554;DHT22;7878;44.632;10.942;2023-05-15T04:42:12;15.60;99.90
15554;DHT22;7878;44.632;10.942;2023-05-15T04:44:37;15.70;99.90
15554;DHT22;7878;44.632;10.942;2023-05-15T04:47:03;15.60;99.90
15554;DHT22;7878;44.632;10.942;2023-05-15T04:49:29;15.70;99.90
15554;DHT22;7878;44.632;10.942;2023-05-15T04:51:55;15.70;99.90
15554;DHT22;7878;44.632;10.942;2023-05-15T04:54:20;15.70;99.90
15554;DHT22;7878;44.632;10.942;2023-05-15T04:56:46;15.70;99.90
15554;DHT22;7878;44.632;10.942;2023-05-15T04:59:12;15.80;99.90
15554;DHT22;7878;44.632;10.942;2023-05-15T05:01:38;15.80;99.90
15554;DHT22;7878;44.632;10.942;2023-05-15T05:04:04;15.80;99.90
15554;DHT22;7878;44.632;10.942;2023-05-15T05:06:29;15.80;99.90
15554;DHT22;7878;44.632;10.942;2023-05-15T05:08:55;15.90;99.90
15554;DHT22;7878;44.632;10.942;2023-05-15T05:11:21;15.90;99.90
15554;DHT22;7878;44.632;10.942;2023-05-15T05:13:48;15.90;99.90
15554;DHT22;7878;44.632;10.942;2023-05-15T05:16:13;16.00;99.90
15554;DHT22;7878;44.632;10.942;2023-05-15T05:18:39;16.00;99.90
15554;DHT22;7878;44.632;10.942;2023-05-15T05:21:05;16.00;99.90
15554;DHT22;7878;44.632;10.942;2023-05-15T05:23:31;16.00;99.90
15554;DHT22;7878;44.632;10.942;2023-05-15T05:25:58;16.00;99.90
15554;DHT22;7878;44.632;10.942;2023-05-15T05:28:24;16.00;99.90
15554;DHT22;7878;44.632;10.942;2023-05-15T05:30:50;16.00;99.90
15554;DHT22;7878;44.632;10.942;2023-05-15T05:33:15;15.90;99.90
15554;DHT22;7878;44.632;10.942;2023-05-15T05:35:41;15.90;99.90
15554;DHT22;7878;44.632;10.942;2023-05-15T05:38:07;15.90;99.90
15554;DHT22;7878;44.632;10.942;2023-05-15T05:40:32;15.90;99.90
15554;DHT22;7878;44.632;10.942;2023-05-15T05:43:01;15.90;99.90
15554;DHT22;7878;44.632;10.942;2023-05-15T05:45:28;15.90;99.90
15554;DHT22;7878;44.632;10.942;2023-05-15T05:47:55;15.90;99.90
15554;DHT22;7878;44.632;10.942;2023-05-15T05:50:21;16.00;99.90
15554;DHT22;7878;44.632;10.942;2023-05-15T05:52:47;16.10;99.90
15554;DHT22;7878;44.632;10.942;2023-05-15T05:55:12;16.10;99.90
15554;DHT22;7878;44.632;10.942;2023-05-15T05:57:38;16.40;99.90
15554;DHT22;7878;44.632;10.942;2023-05-15T06:00:04;16.80;99.90
15554;DHT22;7878;44.632;10.942;2023-05-15T06:02:35;17.20;99.90
15554;DHT22;7878;44.632;10.942;2023-05-15T06:05:01;17.60;99.90
15554;DHT22;7878;44.632;10.942;2023-05-15T06:07:27;17.90;99.90
15554;DHT22;7878;44.632;10.942;2023-05-15T06:09:53;18.10;99.90
15554;DHT22;7878;44.632;10.942;2023-05-15T06:12:18;18.30;99.90
15554;DHT22;7878;44.632;10.942;2023-05-15T06:14:44;18.30;99.90
15554;DHT22;7878;44.632;10.942;2023-05-15T06:17:10;18.40;99.90
15554;DHT22;7878;44.632;10.942;2023-05-15T06:19:36;18.30;99.90
15554;DHT22;7878;44.632;10.942;2023-05-15T06:22:02;18.30;99.90
15554;DHT22;7878;44.632;10.942;2023-05-15T06:24:28;18.30;99.90
15554;DHT22;7878;44.632;10.942;2023-05-15T06:26:53;18.30;99.90
15554;DHT22;7878;44.632;10.942;2023-05-15T06:29:19;18.20;99.90
15554;DHT22;7878;44.632;10.942;2023-05-15T06:31:45;18.20;99.90
15554;DHT22;7878;44.632;10.942;2023-05-15T06:34:11;18.10;99.90
15554;DHT22;7878;44.632;10.942;2023-05-15T06:36:36;18.10;99.90
15554;DHT22;7878;44.632;10.942;2023-05-15T06:39:02;18.00;99.90
15554;DHT22;7878;44.632;10.942;2023-05-15T06:41:28;18.00;99.90
15554;DHT22;7878;44.632;10.942;2023-05-15T06:43:53;18.00;99.90
15554;DHT22;7878;44.632;10.942;2023-05-15T06:46:20;18.00;99.90
15554;DHT22;7878;44.632;10.942;2023-05-15T06:48:46;17.90;99.90
15554;DHT22;7878;44.632;10.942;2023-05-15T06:51:12;17.90;99.90
15554;DHT22;7878;44.632;10.942;2023-05-15T06:53:39;17.90;99.90
15554;DHT22;7878;44.632;10.942;2023-05-15T06:56:05;17.90;99.90
15554;DHT22;7878;44.632;10.942;2023-05-15T06:58:31;17.90;99.90
15554;DHT22;7878;44.632;10.942;2023-05-15T07:00:56;17.90;99.90
15554;DHT22;7878;44.632;10.942;2023-05-15T07:03:22;17.90;99.90
15554;DHT22;7878;44.632;10.942;2023-05-15T07:05:48;17.90;99.90
15554;DHT22;7878;44.632;10.942;2023-05-15T07:08:13;17.90;99.90
15554;DHT22;7878;44.632;10.942;2023-05-15T07:10:39;18.00;99.90
15554;DHT22;7878;44.632;10.942;2023-05-15T07:13:05;18.00;99.90
15554;DHT22;7878;44.632;10.942;2023-05-15T07:15:31;18.00;99.90
15554;DHT22;7878;44.632;10.942;2023-05-15T07:17:56;18.10;99.90
15554;DHT22;7878;44.632;10.942;2023-05-15T07:20:22;18.20;99.90
15554;DHT22;7878;44.632;10.942;2023-05-15T07:22:47;18.30;99.90
15554;DHT22;7878;44.632;10.942;2023-05-15T07:25:13;18.50;99.90
15554;DHT22;7878;44.632;10.942;2023-05-15T07:27:39;18.60;99.90
15554;DHT22;7878;44.632;10.942;2023-05-15T07:30:05;18.60;99.90
15554;DHT22;7878;44.632;10.942;2023-05-15T07:32:31;18.60;99.90
15554;DHT22;7878;44.632;10.942;2023-05-15T07:34:56;18.70;99.90
15554;DHT22;7878;44.632;10.942;2023-05-15T07:37:22;18.70;99.90
15554;DHT22;7878;44.632;10.942;2023-05-15T07:39:48;18.80;99.90
15554;DHT22;7878;44.632;10.942;2023-05-15T07:42:14;18.80;99.90
15554;DHT22;7878;44.632;10.942;2023-05-15T07:44:39;18.80;99.90
15554;DHT22;7878;44.632;10.942;2023-05-15T07:47:05;18.80;99.90
15554;DHT22;7878;44.632;10.942;2023-05-15T07:49:31;18.90;99.90
15554;DHT22;7878;44.632;10.942;2023-05-15T07:51:56;18.90;99.90
15554;DHT22;7878;44.632;10.942;2023-05-15T07:54:22;18.90;99.90
15554;DHT22;7878;44.632;10.942;2023-05-15T07:56:48;18.90;99.90
15554;DHT22;7878;44.632;10.942;2023-05-15T07:59:14;18.80;99.90
15554;DHT22;7878;44.632;10.942;2023-05-15T08:01:39;18.70;99.90
15554;DHT22;7878;44.632;10.942;2023-05-15T08:04:07;18.70;99.90
15554;DHT22;7878;44.632;10.942;2023-05-15T08:06:34;18.60;99.90
15554;DHT22;7878;44.632;10.942;2023-05-15T08:09:01;18.60;99.90
15554;DHT22;7878;44.632;10.942;2023-05-15T08:11:27;18.70;99.90
15554;DHT22;7878;44.632;10.942;2023-05-15T08:13:52;18.80;99.90
15554;DHT22;7878;44.632;10.942;2023-05-15T08:16:18;18.90;99.90
15554;DHT22;7878;44.632;10.942;2023-05-15T08:18:44;19.00;99.90
15554;DHT22;7878;44.632;10.942;2023-05-15T08:21:09;19.20;99.90
15554;DHT22;7878;44.632;10.942;2023-05-15T08:23:35;19.40;99.90
15554;DHT22;7878;44.632;10.942;2023-05-15T08:26:01;19.60;99.90
15554;DHT22;7878;44.632;10.942;2023-05-15T08:28:27;19.80;99.90
15554;DHT22;7878;44.632;10.942;2023-05-15T08:30:52;19.90;99.90
15554;DHT22;7878;44.632;10.942;2023-05-15T08:33:18;19.90;99.90
15554;DHT22;7878;44.632;10.942;2023-05-15T08:35:44;19.80;99.90
15554;DHT22;7878;44.632;10.942;2023-05-15T08:38:10;19.90;99.90
15554;DHT22;7878;44.632;10.942;2023-05-15T08:40:36;19.90;99.90
15554;DHT22;7878;44.632;10.942;2023-05-15T08:43:15;19.90;99.90
15554;DHT22;7878;44.632;10.942;2023-05-15T08:45:42;19.90;99.90
15554;DHT22;7878;44.632;10.942;2023-05-15T08:48:16;20.00;99.90
15554;DHT22;7878;44.632;10.942;2023-05-15T08:50:42;19.90;99.90
15554;DHT22;7878;44.632;10.942;2023-05-15T08:53:12;19.80;99.90
15554;DHT22;7878;44.632;10.942;2023-05-15T08:55:39;19.70;99.90
15554;DHT22;7878;44.632;10.942;2023-05-15T08:58:07;19.60;99.90
15554;DHT22;7878;44.632;10.942;2023-05-15T09:00:33;19.60;99.90
15554;DHT22;7878;44.632;10.942;2023-05-15T09:02:59;19.60;99.90
15554;DHT22;7878;44.632;10.942;2023-05-15T09:05:27;19.70;99.90
15554;DHT22;7878;44.632;10.942;2023-05-15T09:07:54;19.70;99.90
15554;DHT22;7878;44.632;10.942;2023-05-15T09:10:20;19.70;99.90
15554;DHT22;7878;44.632;10.942;2023-05-15T09:12:50;19.60;99.90
15554;DHT22;7878;44.632;10.942;2023-05-15T09:15:17;19.60;99.90
15554;DHT22;7878;44.632;10.942;2023-05-15T09:17:47;19.60;99.90
15554;DHT22;7878;44.632;10.942;2023-05-15T09:22:59;19.90;99.90
15554;DHT22;7878;44.632;10.942;2023-05-15T09:25:41;20.00;99.90
15554;DHT22;7878;44.632;10.942;2023-05-15T09:28:23;20.20;99.90
15554;DHT22;7878;44.632;10.942;2023-05-15T09:30:49;21.00;99.90
15554;DHT22;7878;44.632;10.942;2023-05-15T09:33:15;21.40;99.90
15554;DHT22;7878;44.632;10.942;2023-05-15T09:35:41;21.50;99.90
15554;DHT22;7878;44.632;10.942;2023-05-15T09:38:11;21.80;99.90
15554;DHT22;7878;44.632;10.942;2023-05-15T09:40:38;22.10;99.90
15554;DHT22;7878;44.632;10.942;2023-05-15T09:43:04;22.20;99.90
15554;DHT22;7878;44.632;10.942;2023-05-15T09:45:30;23.00;99.90
15554;DHT22;7878;44.632;10.942;2023-05-15T09:47:58;23.50;99.90
15554;DHT22;7878;44.632;10.942;2023-05-15T09:50:30;23.60;99.90
15554;DHT22;7878;44.632;10.942;2023-05-15T09:52:58;23.00;99.90
15554;DHT22;7878;44.632;10.942;2023-05-15T09:55:23;22.50;99.90
15554;DHT22;7878;44.632;10.942;2023-05-15T09:58:09;22.20;99.90
15554;DHT22;7878;44.632;10.942;2023-05-15T10:00:37;22.10;98.00
15554;DHT22;7878;44.632;10.942;2023-05-15T10:03:04;21.90;99.90
15554;DHT22;7878;44.632;10.942;2023-05-15T10:05:30;21.80;99.90
15554;DHT22;7878;44.632;10.942;2023-05-15T10:07:57;21.90;99.90
15554;DHT22;7878;44.632;10.942;2023-05-15T10:10:24;22.30;99.90
15554;DHT22;7878;44.632;10.942;2023-05-15T10:12:51;22.50;99.90
15554;DHT22;7878;44.632;10.942;2023-05-15T10:15:18;22.60;99.90
15554;DHT22;7878;44.632;10.942;2023-05-15T10:17:46;22.60;99.90
15554;DHT22;7878;44.632;10.942;2023-05-15T10:20:14;22.60;99.90
15554;DHT22;7878;44.632;10.942;2023-05-15T10:22:45;22.60;99.90
15554;DHT22;7878;44.632;10.942;2023-05-15T10:28:01;22.70;99.10
15554;DHT22;7878;44.632;10.942;2023-05-15T10:30:28;22.70;99.90
15554;DHT22;7878;44.632;10.942;2023-05-15T10:32:55;22.60;99.90
15554;DHT22;7878;44.632;10.942;2023-05-15T10:35:22;22.50;99.40
15554;DHT22;7878;44.632;10.942;2023-05-15T10:37:48;22.50;99.70
15554;DHT22;7878;44.632;10.942;2023-05-15T10:40:15;22.50;99.70
15554;DHT22;7878;44.632;10.942;2023-05-15T10:42:43;22.40;99.00
15554;DHT22;7878;44.632;10.942;2023-05-15T10:45:10;22.30;99.40
15554;DHT22;7878;44.632;10.942;2023-05-15T10:47:37;22.30;99.80
15554;DHT22;7878;44.632;10.942;2023-05-15T10:50:04;22.50;99.90
15554;DHT22;7878;44.632;10.942;2023-05-15T10:52:35;22.60;98.70
15554;DHT22;7878;44.632;10.942;2023-05-15T10:55:01;22.70;97.40
15554;DHT22;7878;44.632;10.942;2023-05-15T10:57:28;22.70;99.20
15554;DHT22;7878;44.632;10.942;2023-05-15T10:59:55;22.70;97.70
15554;DHT22;7878;44.632;10.942;2023-05-15T11:02:25;22.80;99.20
15554;DHT22;7878;44.632;10.942;2023-05-15T11:05:01;23.00;97.10
15554;DHT22;7878;44.632;10.942;2023-05-15T11:07:28;23.20;97.40
15554;DHT22;7878;44.632;10.942;2023-05-15T11:09:54;23.30;97.60
15554;DHT22;7878;44.632;10.942;2023-05-15T11:12:21;23.10;98.10
15554;DHT22;7878;44.632;10.942;2023-05-15T11:17:25;23.40;94.60
15554;DHT22;7878;44.632;10.942;2023-05-15T11:22:21;23.50;96.70
15554;DHT22;7878;44.632;10.942;2023-05-15T11:25:07;23.80;97.60
15554;DHT22;7878;44.632;10.942;2023-05-15T11:27:41;23.90;95.20
15554;DHT22;7878;44.632;10.942;2023-05-15T11:30:17;23.90;94.20
15554;DHT22;7878;44.632;10.942;2023-05-15T11:35:26;23.20;95.40
15554;DHT22;7878;44.632;10.942;2023-05-15T11:37:57;23.10;95.60
15554;DHT22;7878;44.632;10.942;2023-05-15T11:40:26;22.90;97.20
15554;DHT22;7878;44.632;10.942;2023-05-15T11:43:04;22.70;96.80
15554;DHT22;7878;44.632;10.942;2023-05-15T11:45:33;22.70;94.60
15554;DHT22;7878;44.632;10.942;2023-05-15T11:48:00;22.80;95.50
15554;DHT22;7878;44.632;10.942;2023-05-15T11:50:29;22.70;95.70
15554;DHT22;7878;44.632;10.942;2023-05-15T11:52:55;22.70;96.20
15554;DHT22;7878;44.632;10.942;2023-05-15T11:55:21;22.80;96.40
15554;DHT22;7878;44.632;10.942;2023-05-15T11:57:48;22.70;97.10
15554;DHT22;7878;44.632;10.942;2023-05-15T12:00:14;22.60;97.00
15554;DHT22;7878;44.632;10.942;2023-05-15T12:02:40;22.60;97.20
15554;DHT22;7878;44.632;10.942;2023-05-15T12:05:07;22.40;96.80
15554;DHT22;7878;44.632;10.942;2023-05-15T12:07:42;22.30;96.80
15554;DHT22;7878;44.632;10.942;2023-05-15T12:10:09;22.20;96.10
15554;DHT22;7878;44.632;10.942;2023-05-15T12:12:41;22.00;97.60
15554;DHT22;7878;44.632;10.942;2023-05-15T12:15:12;22.20;96.90
15554;DHT22;7878;44.632;10.942;2023-05-15T12:17:39;22.20;97.40
15554;DHT22;7878;44.632;10.942;2023-05-15T12:20:14;22.10;96.80
15554;DHT22;7878;44.632;10.942;2023-05-15T12:22:40;22.00;95.90
15554;DHT22;7878;44.632;10.942;2023-05-15T12:25:14;22.00;96.70
15554;DHT22;7878;44.632;10.942;2023-05-15T12:27:40;22.10;96.90
15554;DHT22;7878;44.632;10.942;2023-05-15T12:30:07;22.20;96.90
15554;DHT22;7878;44.632;10.942;2023-05-15T12:32:35;22.10;96.80
15554;DHT22;7878;44.632;10.942;2023-05-15T12:35:02;22.00;97.10
15554;DHT22;7878;44.632;10.942;2023-05-15T12:37:31;22.00;97.60
15554;DHT22;7878;44.632;10.942;2023-05-15T12:40:04;22.10;97.90
15554;DHT22;7878;44.632;10.942;2023-05-15T12:42:44;22.10;97.40
15554;DHT22;7878;44.632;10.942;2023-05-15T12:45:17;22.00;95.20
15554;DHT22;7878;44.632;10.942;2023-05-15T12:47:44;22.00;96.80
15554;DHT22;7878;44.632;10.942;2023-05-15T12:50:21;22.10;97.30
15554;DHT22;7878;44.632;10.942;2023-05-15T12:52:50;22.20;95.60
15554;DHT22;7878;44.632;10.942;2023-05-15T12:55:28;22.20;95.50
15554;DHT22;7878;44.632;10.942;2023-05-15T12:57:57;22.20;94.50
15554;DHT22;7878;44.632;10.942;2023-05-15T13:00:23;22.30;95.90
15554;DHT22;7878;44.632;10.942;2023-05-15T13:02:52;22.30;96.50
15554;DHT22;7878;44.632;10.942;2023-05-15T13:05:19;22.30;94.40
15554;DHT22;7878;44.632;10.942;2023-05-15T13:07:47;22.30;94.00
15554;DHT22;7878;44.632;10.942;2023-05-15T13:10:12;22.30;94.10
15554;DHT22;7878;44.632;10.942;2023-05-15T13:12:45;22.30;95.30
15554;DHT22;7878;44.632;10.942;2023-05-15T13:15:34;22.20;94.60
15554;DHT22;7878;44.632;10.942;2023-05-15T13:18:02;22.20;93.50
15554;DHT22;7878;44.632;10.942;2023-05-15T13:20:49;22.20;95.00
15554;DHT22;7878;44.632;10.942;2023-05-15T13:23:20;22.10;94.50
15554;DHT22;7878;44.632;10.942;2023-05-15T13:25:48;22.20;95.60
15554;DHT22;7878;44.632;10.942;2023-05-15T13:28:14;22.40;95.90
15554;DHT22;7878;44.632;10.942;2023-05-15T13:30:40;22.60;95.10
15554;DHT22;7878;44.632;10.942;2023-05-15T13:33:07;22.70;94.20
15554;DHT22;7878;44.632;10.942;2023-05-15T13:35:33;22.60;95.10
15554;DHT22;7878;44.632;10.942;2023-05-15T13:37:58;22.60;94.20
15554;DHT22;7878;44.632;10.942;2023-05-15T13:40:24;22.60;94.00
15554;DHT22;7878;44.632;10.942;2023-05-15T13:42:51;22.60;93.70
15554;DHT22;7878;44.632;10.942;2023-05-15T13:45:17;22.60;94.50
15554;DHT22;7878;44.632;10.942;2023-05-15T13:47:43;22.60;94.30
15554;DHT22;7878;44.632;10.942;2023-05-15T13:50:10;22.50;95.30
15554;DHT22;7878;44.632;10.942;2023-05-15T13:52:37;22.50;94.80
15554;DHT22;7878;44.632;10.942;2023-05-15T13:55:03;22.40;95.50
15554;DHT22;7878;44.632;10.942;2023-05-15T13:57:29;22.40;94.30
15554;DHT22;7878;44.632;10.942;2023-05-15T13:59:55;22.50;95.50
15554;DHT22;7878;44.632;10.942;2023-05-15T14:02:21;22.60;94.30
15554;DHT22;7878;44.632;10.942;2023-05-15T14:04:51;22.40;94.30
15554;DHT22;7878;44.632;10.942;2023-05-15T14:07:16;22.50;95.00
15554;DHT22;7878;44.632;10.942;2023-05-15T14:09:42;22.50;95.20
15554;DHT22;7878;44.632;10.942;2023-05-15T14:12:08;22.50;94.90
15554;DHT22;7878;44.632;10.942;2023-05-15T14:14:34;22.60;93.80
15554;DHT22;7878;44.632;10.942;2023-05-15T14:17:00;22.60;94.20
15554;DHT22;7878;44.632;10.942;2023-05-15T14:19:25;22.70;94.20
15554;DHT22;7878;44.632;10.942;2023-05-15T14:21:51;22.60;93.90
15554;DHT22;7878;44.632;10.942;2023-05-15T14:24:17;22.50;94.10
15554;DHT22;7878;44.632;10.942;2023-05-15T14:26:42;22.50;94.90
15554;DHT22;7878;44.632;10.942;2023-05-15T14:29:10;22.50;94.90
15554;DHT22;7878;44.632;10.942;2023-05-15T14:31:35;22.60;94.90
15554;DHT22;7878;44.632;10.942;2023-05-15T14:34:01;22.60;93.20
15554;DHT22;7878;44.632;10.942;2023-05-15T14:36:27;22.40;93.10
15554;DHT22;7878;44.632;10.942;2023-05-15T14:38:52;22.30;93.00
15554;DHT22;7878;44.632;10.942;2023-05-15T14:41:18;22.30;93.30
15554;DHT22;7878;44.632;10.942;2023-05-15T14:43:43;22.30;94.00
15554;DHT22;7878;44.632;10.942;2023-05-15T14:46:09;22.40;94.60
15554;DHT22;7878;44.632;10.942;2023-05-15T14:48:35;22.50;93.20
15554;DHT22;7878;44.632;10.942;2023-05-15T14:51:00;22.40;93.70
15554;DHT22;7878;44.632;10.942;2023-05-15T14:53:26;22.30;94.10
15554;DHT22;7878;44.632;10.942;2023-05-15T14:55:53;22.10;93.40
15554;DHT22;7878;44.632;10.942;2023-05-15T14:58:19;22.20;93.40
15554;DHT22;7878;44.632;10.942;2023-05-15T15:00:45;22.20;93.30
15554;DHT22;7878;44.632;10.942;2023-05-15T15:03:13;22.20;94.30
15554;DHT22;7878;44.632;10.942;2023-05-15T15:05:39;22.30;93.40
15554;DHT22;7878;44.632;10.942;2023-05-15T15:08:06;22.20;93.30
15554;DHT22;7878;44.632;10.942;2023-05-15T15:10:34;22.20;93.90
15554;DHT22;7878;44.632;10.942;2023-05-15T15:13:01;22.10;94.70
15554;DHT22;7878;44.632;10.942;2023-05-15T15:15:28;22.20;94.60
15554;DHT22;7878;44.632;10.942;2023-05-15T15:17:55;22.20;93.80
15554;DHT22;7878;44.632;10.942;2023-05-15T15:20:21;22.20;93.60
15554;DHT22;7878;44.632;10.942;2023-05-15T15:22:47;22.30;94.30
15554;DHT22;7878;44.632;10.942;2023-05-15T15:25:13;22.30;94.50
15554;DHT22;7878;44.632;10.942;2023-05-15T15:27:39;22.40;94.30
15554;DHT22;7878;44.632;10.942;2023-05-15T15:30:06;22.40;94.70
15554;DHT22;7878;44.632;10.942;2023-05-15T15:32:32;22.40;94.10
15554;DHT22;7878;44.632;10.942;2023-05-15T15:34:58;22.30;94.60
15554;DHT22;7878;44.632;10.942;2023-05-15T15:37:25;22.20;94.70
15554;DHT22;7878;44.632;10.942;2023-05-15T15:39:51;22.20;94.10
15554;DHT22;7878;44.632;10.942;2023-05-15T15:42:17;22.20;93.80
15554;DHT22;7878;44.632;10.942;2023-05-15T15:44:42;22.10;93.80
15554;DHT22;7878;44.632;10.942;2023-05-15T15:47:08;22.10;93.40
15554;DHT22;7878;44.632;10.942;2023-05-15T15:49:34;22.10;93.30
15554;DHT22;7878;44.632;10.942;2023-05-15T15:52:00;22.10;93.60
15554;DHT22;7878;44.632;10.942;2023-05-15T15:54:26;22.10;93.40
15554;DHT22;7878;44.632;10.942;2023-05-15T15:56:51;22.00;93.60
15554;DHT22;7878;44.632;10.942;2023-05-15T15:59:17;22.10;94.10
15554;DHT22;7878;44.632;10.942;2023-05-15T16:01:43;22.10;93.00